sensor_id;sensor_type;location;lat;lon;timestamp;pressure;altitude;pressure_sealevel;temperature;humidity
47738;BME280;33502;47.182;27.506;2023-03-25T00:01:09;99502.34;;;10.64;94.06
47738;BME280;33502;47.182;27.506;2023-03-25T00:03:39;99500.81;;;10.75;94.45
47738;BME280;33502;47.182;27.506;2023-03-25T00:06:14;99493.78;;;10.90;93.71
47738;BME280;33502;47.182;27.506;2023-03-25T00:08:41;99489.84;;;10.97;93.29
47738;BME280;33502;47.182;27.506;2023-03-25T00:11:06;99493.63;;;10.93;93.62
47738;BME280;33502;47.182;27.506;2023-03-25T00:13:33;99490.38;;;10.88;94.25
47738;BME280;33502;47.182;27.506;2023-03-25T00:15:59;99495.50;;;10.75;94.99
47738;BME280;33502;47.182;27.506;2023-03-25T00:18:26;99494.50;;;10.62;96.54
47738;BME280;33502;47.182;27.506;2023-03-25T00:20:54;99486.50;;;10.48;97.90
47738;BME280;33502;47.182;27.506;2023-03-25T00:23:20;99486.91;;;10.40;99.27
47738;BME280;33502;47.182;27.506;2023-03-25T00:25:47;99477.44;;;10.36;100.00
47738;BME280;33502;47.182;27.506;2023-03-25T00:28:13;99481.53;;;10.42;100.00
47738;BME280;33502;47.182;27.506;2023-03-25T00:30:40;99468.66;;;10.51;100.00
47738;BME280;33502;47.182;27.506;2023-03-25T00:33:06;99466.69;;;10.55;100.00
47738;BME280;33502;47.182;27.506;2023-03-25T00:35:31;99461.47;;;10.53;100.00
47738;BME280;33502;47.182;27.506;2023-03-25T00:37:57;99462.72;;;10.62;100.00
47738;BME280;33502;47.182;27.506;2023-03-25T00:40:28;99452.13;;;10.62;100.00
47738;BME280;33502;47.182;27.506;2023-03-25T00:42:54;99454.63;;;10.65;100.00
47738;BME280;33502;47.182;27.506;2023-03-25T00:45:20;99455.81;;;10.60;100.00
47738;BME280;33502;47.182;27.506;2023-03-25T00:47:46;99456.88;;;10.57;100.00
47738;BME280;33502;47.182;27.506;2023-03-25T00:50:12;99456.25;;;10.52;100.00
47738;BME280;33502;47.182;27.506;2023-03-25T00:52:37;99459.94;;;10.49;100.00
47738;BME280;33502;47.182;27.506;2023-03-25T00:55:03;99455.50;;;10.50;100.00
47738;BME280;33502;47.182;27.506;2023-03-25T00:57:29;99458.63;;;10.56;100.00
47738;BME280;33502;47.182;27.506;2023-03-25T00:59:55;99442.25;;;10.50;100.00
47738;BME280;33502;47.182;27.506;2023-03-25T01:02:21;99445.00;;;10.48;100.00
47738;BME280;33502;47.182;27.506;2023-03-25T01:04:47;99443.19;;;10.49;100.00
47738;BME280;33502;47.182;27.506;2023-03-25T01:07:14;99436.44;;;10.43;100.00
47738;BME280;33502;47.182;27.506;2023-03-25T01:09:40;99434.84;;;10.41;100.00
47738;BME280;33502;47.182;27.506;2023-03-25T01:12:06;99426.09;;;10.54;100.00
47738;BME280;33502;47.182;27.506;2023-03-25T01:14:32;99426.78;;;10.58;100.00
47738;BME280;33502;47.182;27.506;2023-03-25T01:16:58;99423.91;;;10.63;100.00
47738;BME280;33502;47.182;27.506;2023-03-25T01:19:26;99426.19;;;10.69;100.00
47738;BME280;33502;47.182;27.506;2023-03-25T01:21:52;99423.78;;;10.64;100.00
47738;BME280;33502;47.182;27.506;2023-03-25T01:24:18;99418.00;;;10.57;100.00
47738;BME280;33502;47.182;27.506;2023-03-25T01:26:43;99418.69;;;10.61;100.00
47738;BME280;33502;47.182;27.506;2023-03-25T01:29:10;99415.59;;;10.69;100.00
47738;BME280;33502;47.182;27.506;2023-03-25T01:31:36;99417.34;;;10.84;100.00
47738;BME280;33502;47.182;27.506;2023-03-25T01:34:02;99412.38;;;10.94;100.00
47738;BME280;33502;47.182;27.506;2023-03-25T01:36:28;99421.47;;;11.04;100.00
47738;BME280;33502;47.182;27.506;2023-03-25T01:38:57;99416.28;;;11.03;100.00
47738;BME280;33502;47.182;27.506;2023-03-25T01:41:24;99426.66;;;10.91;100.00
47738;BME280;33502;47.182;27.506;2023-03-25T01:44:09;99424.38;;;10.69;100.00
47738;BME280;33502;47.182;27.506;2023-03-25T01:46:54;99421.09;;;10.50;100.00
47738;BME280;33502;47.182;27.506;2023-03-25T01:49:22;99418.75;;;10.60;100.00
47738;BME280;33502;47.182;27.506;2023-03-25T01:51:50;99416.78;;;10.63;100.00
47738;BME280;33502;47.182;27.506;2023-03-25T01:54:16;99417.63;;;10.64;100.00
47738;BME280;33502;47.182;27.506;2023-03-25T01:56:43;99409.97;;;10.59;100.00
47738;BME280;33502;47.182;27.506;2023-03-25T01:59:11;99414.06;;;10.49;100.00
47738;BME280;33502;47.182;27.506;2023-03-25T02:01:37;99408.38;;;10.41;100.00
47738;BME280;33502;47.182;27.506;2023-03-25T02:04:03;99411.44;;;10.33;100.00
47738;BME280;33502;47.182;27.506;2023-03-25T02:06:35;99406.41;;;10.28;100.00
47738;BME280;33502;47.182;27.506;2023-03-25T02:09:04;99396.06;;;10.24;100.00
47738;BME280;33502;47.182;27.506;2023-03-25T02:11:37;99389.31;;;10.18;100.00
47738;BME280;33502;47.182;27.506;2023-03-25T02:14:05;99390.00;;;10.22;100.00
47738;BME280;33502;47.182;27.506;2023-03-25T02:16:35;99388.88;;;10.26;100.00
47738;BME280;33502;47.182;27.506;2023-03-25T02:34:22;99371.59;;;10.36;100.00
47738;BME280;33502;47.182;27.506;2023-03-25T02:45:00;99356.28;;;10.41;100.00
47738;BME280;33502;47.182;27.506;2023-03-25T02:47:33;99360.41;;;10.15;100.00
47738;BME280;33502;47.182;27.506;2023-03-25T02:50:06;99352.38;;;9.85;100.00
47738;BME280;33502;47.182;27.506;2023-03-25T02:52:37;99347.66;;;9.58;100.00
47738;BME280;33502;47.182;27.506;2023-03-25T02:55:06;99344.41;;;9.37;100.00
47738;BME280;33502;47.182;27.506;2023-03-25T02:57:36;99331.06;;;9.23;100.00
47738;BME280;33502;47.182;27.506;2023-03-25T03:00:04;99331.22;;;9.19;100.00
47738;BME280;33502;47.182;27.506;2023-03-25T03:02:42;99330.75;;;9.29;100.00
47738;BME280;33502;47.182;27.506;2023-03-25T03:05:23;99333.75;;;9.38;100.00
47738;BME280;33502;47.182;27.506;2023-03-25T03:07:51;99326.94;;;9.50;100.00
47738;BME280;33502;47.182;27.506;2023-03-25T03:10:22;99341.69;;;9.54;100.00
47738;BME280;33502;47.182;27.506;2023-03-25T03:13:02;99349.97;;;9.48;100.00
47738;BME280;33502;47.182;27.506;2023-03-25T03:15:45;99339.88;;;9.39;100.00
47738;BME280;33502;47.182;27.506;2023-03-25T03:23:19;99335.97;;;9.13;100.00
47738;BME280;33502;47.182;27.506;2023-03-25T03:31:25;99332.66;;;8.92;100.00
47738;BME280;33502;47.182;27.506;2023-03-25T03:33:52;99339.28;;;8.83;100.00
47738;BME280;33502;47.182;27.506;2023-03-25T03:36:25;99347.66;;;8.74;100.00
47738;BME280;33502;47.182;27.506;2023-03-25T03:38:53;99342.78;;;8.66;100.00
47738;BME280;33502;47.182;27.506;2023-03-25T03:41:22;99341.44;;;8.57;100.00
47738;BME280;33502;47.182;27.506;2023-03-25T03:43:54;99337.31;;;8.52;100.00
47738;BME280;33502;47.182;27.506;2023-03-25T03:46:26;99340.13;;;8.49;100.00
47738;BME280;33502;47.182;27.506;2023-03-25T03:48:54;99345.69;;;8.42;100.00
47738;BME280;33502;47.182;27.506;2023-03-25T03:51:22;99353.81;;;8.38;100.00
47738;BME280;33502;47.182;27.506;2023-03-25T03:53:54;99352.31;;;8.32;100.00
47738;BME280;33502;47.182;27.506;2023-03-25T03:56:36;99352.56;;;8.28;100.00
47738;BME280;33502;47.182;27.506;2023-03-25T03:59:06;99351.84;;;8.24;100.00
47738;BME280;33502;47.182;27.506;2023-03-25T04:01:39;99352.00;;;8.21;100.00
47738;BME280;33502;47.182;27.506;2023-03-25T04:04:11;99345.16;;;8.17;100.00
47738;BME280;33502;47.182;27.506;2023-03-25T04:06:38;99341.69;;;8.16;100.00
47738;BME280;33502;47.182;27.506;2023-03-25T04:11:36;99341.09;;;8.10;100.00
47738;BME280;33502;47.182;27.506;2023-03-25T04:14:04;99341.41;;;8.03;100.00
47738;BME280;33502;47.182;27.506;2023-03-25T04:16:31;99340.56;;;8.03;100.00
47738;BME280;33502;47.182;27.506;2023-03-25T04:18:57;99337.09;;;8.02;100.00
47738;BME280;33502;47.182;27.506;2023-03-25T04:21:22;99331.72;;;8.04;100.00
47738;BME280;33502;47.182;27.506;2023-03-25T04:23:49;99329.78;;;8.08;100.00
47738;BME280;33502;47.182;27.506;2023-03-25T04:26:16;99333.84;;;8.15;100.00
47738;BME280;33502;47.182;27.506;2023-03-25T04:28:41;99334.63;;;8.17;100.00
47738;BME280;33502;47.182;27.506;2023-03-25T04:31:12;99340.66;;;8.19;100.00
47738;BME280;33502;47.182;27.506;2023-03-25T04:33:43;99343.00;;;8.25;100.00
47738;BME280;33502;47.182;27.506;2023-03-25T04:36:13;99339.91;;;8.34;100.00
47738;BME280;33502;47.182;27.506;2023-03-25T04:38:39;99343.94;;;8.43;100.00
47738;BME280;33502;47.182;27.506;2023-03-25T04:41:05;99344.31;;;8.53;100.00
47738;BME280;33502;47.182;27.506;2023-03-25T04:43:31;99348.19;;;8.63;100.00
47738;BME280;33502;47.182;27.506;2023-03-25T04:45:57;99353.72;;;8.76;100.00
47738;BME280;33502;47.182;27.506;2023-03-25T04:48:33;99347.91;;;8.87;100.00
47738;BME280;33502;47.182;27.506;2023-03-25T04:51:06;99349.91;;;8.99;100.00
47738;BME280;33502;47.182;27.506;2023-03-25T04:53:35;99347.56;;;9.10;100.00
47738;BME280;33502;47.182;27.506;2023-03-25T04:56:01;99341.78;;;9.19;100.00
47738;BME280;33502;47.182;27.506;2023-03-25T04:58:27;99344.03;;;9.27;100.00
47738;BME280;33502;47.182;27.506;2023-03-25T05:00:53;99342.25;;;9.44;100.00
47738;BME280;33502;47.182;27.506;2023-03-25T05:03:19;99343.09;;;10.09;100.00
47738;BME280;33502;47.182;27.506;2023-03-25T05:05:49;99349.50;;;11.55;100.00
47738;BME280;33502;47.182;27.506;2023-03-25T05:08:15;99341.56;;;12.65;100.00
47738;BME280;33502;47.182;27.506;2023-03-25T05:10:40;99348.97;;;13.64;100.00
47738;BME280;33502;47.182;27.506;2023-03-25T05:13:07;99354.38;;;14.61;92.40
47738;BME280;33502;47.182;27.506;2023-03-25T05:15:34;99350.41;;;15.13;86.63
47738;BME280;33502;47.182;27.506;2023-03-25T05:18:10;99346.59;;;14.82;86.25
47738;BME280;33502;47.182;27.506;2023-03-25T05:20:40;99350.16;;;14.58;86.76
47738;BME280;33502;47.182;27.506;2023-03-25T05:23:06;99344.63;;;14.48;88.05
47738;BME280;33502;47.182;27.506;2023-03-25T05:25:37;99346.50;;;14.59;86.52
47738;BME280;33502;47.182;27.506;2023-03-25T05:28:03;99348.31;;;14.59;85.23
47738;BME280;33502;47.182;27.506;2023-03-25T05:30:30;99348.59;;;13.82;89.45
47738;BME280;33502;47.182;27.506;2023-03-25T05:32:57;99344.47;;;13.65;92.56
47738;BME280;33502;47.182;27.506;2023-03-25T05:35:24;99346.50;;;13.48;93.61
47738;BME280;33502;47.182;27.506;2023-03-25T05:37:51;99354.03;;;13.29;94.78
47738;BME280;33502;47.182;27.506;2023-03-25T05:40:17;99339.56;;;12.95;97.68
47738;BME280;33502;47.182;27.506;2023-03-25T05:42:42;99339.00;;;12.64;100.00
47738;BME280;33502;47.182;27.506;2023-03-25T05:45:15;99339.56;;;12.42;100.00
47738;BME280;33502;47.182;27.506;2023-03-25T05:47:41;99337.47;;;12.20;100.00
47738;BME280;33502;47.182;27.506;2023-03-25T05:50:08;99341.63;;;11.97;100.00
47738;BME280;33502;47.182;27.506;2023-03-25T05:52:35;99342.09;;;11.74;100.00
47738;BME280;33502;47.182;27.506;2023-03-25T05:55:01;99341.38;;;11.58;100.00
47738;BME280;33502;47.182;27.506;2023-03-25T05:57:27;99339.38;;;11.47;100.00
47738;BME280;33502;47.182;27.506;2023-03-25T05:59:52;99343.34;;;11.40;100.00
47738;BME280;33502;47.182;27.506;2023-03-25T06:02:18;99344.41;;;11.38;100.00
47738;BME280;33502;47.182;27.506;2023-03-25T06:04:46;99352.25;;;11.39;100.00
47738;BME280;33502;47.182;27.506;2023-03-25T06:07:12;99348.16;;;11.48;100.00
47738;BME280;33502;47.182;27.506;2023-03-25T06:09:50;99341.91;;;11.78;100.00
47738;BME280;33502;47.182;27.506;2023-03-25T06:12:19;99341.38;;;12.94;100.00
47738;BME280;33502;47.182;27.506;2023-03-25T06:14:45;99341.59;;;15.35;86.33
47738;BME280;33502;47.182;27.506;2023-03-25T06:17:16;99346.41;;;16.32;77.00
47738;BME280;33502;47.182;27.506;2023-03-25T06:19:46;99341.75;;;17.50;68.27
47738;BME280;33502;47.182;27.506;2023-03-25T06:22:12;99338.06;;;16.78;70.85
47738;BME280;33502;47.182;27.506;2023-03-25T06:24:38;99356.25;;;16.52;71.16
47738;BME280;33502;47.182;27.506;2023-03-25T06:27:05;99351.56;;;15.90;74.87
47738;BME280;33502;47.182;27.506;2023-03-25T06:29:32;99346.31;;;15.20;78.96
47738;BME280;33502;47.182;27.506;2023-03-25T06:31:58;99346.06;;;17.11;70.20
47738;BME280;33502;47.182;27.506;2023-03-25T06:34:24;99346.75;;;18.05;63.22
47738;BME280;33502;47.182;27.506;2023-03-25T06:36:50;99349.31;;;17.14;66.20
47738;BME280;33502;47.182;27.506;2023-03-25T06:39:19;99340.22;;;16.20;71.36
47738;BME280;33502;47.182;27.506;2023-03-25T06:41:45;99342.09;;;15.29;77.59
47738;BME280;33502;47.182;27.506;2023-03-25T06:44:17;99335.41;;;14.77;81.27
47738;BME280;33502;47.182;27.506;2023-03-25T06:47:01;99326.44;;;14.66;82.95
47738;BME280;33502;47.182;27.506;2023-03-25T06:49:36;99310.38;;;14.79;82.93
47738;BME280;33502;47.182;27.506;2023-03-25T06:52:03;99315.66;;;15.26;81.89
47738;BME280;33502;47.182;27.506;2023-03-25T06:54:28;99313.16;;;17.20;71.85
47738;BME280;33502;47.182;27.506;2023-03-25T06:56:54;99310.63;;;16.97;68.98
47738;BME280;33502;47.182;27.506;2023-03-25T06:59:19;99317.56;;;17.31;69.07
47738;BME280;33502;47.182;27.506;2023-03-25T07:01:45;99314.63;;;19.22;60.43
47738;BME280;33502;47.182;27.506;2023-03-25T07:04:11;99304.59;;;19.52;58.31
47738;BME280;33502;47.182;27.506;2023-03-25T07:06:36;99309.16;;;18.65;59.67
47738;BME280;33502;47.182;27.506;2023-03-25T07:09:02;99314.94;;;17.40;64.07
47738;BME280;33502;47.182;27.506;2023-03-25T07:11:28;99318.00;;;16.19;70.84
47738;BME280;33502;47.182;27.506;2023-03-25T07:13:55;99321.72;;;15.62;75.51
47738;BME280;33502;47.182;27.506;2023-03-25T07:16:23;99320.38;;;15.90;77.13
47738;BME280;33502;47.182;27.506;2023-03-25T07:18:48;99316.09;;;18.29;64.61
47738;BME280;33502;47.182;27.506;2023-03-25T07:21:19;99310.88;;;19.70;58.64
47738;BME280;33502;47.182;27.506;2023-03-25T07:23:44;99304.47;;;21.51;52.61
47738;BME280;33502;47.182;27.506;2023-03-25T07:26:10;99299.13;;;22.10;48.94
47738;BME280;33502;47.182;27.506;2023-03-25T07:28:37;99293.47;;;20.02;53.59
47738;BME280;33502;47.182;27.506;2023-03-25T07:31:06;99294.63;;;18.48;60.11
47738;BME280;33502;47.182;27.506;2023-03-25T07:33:32;99289.94;;;17.61;64.04
47738;BME280;33502;47.182;27.506;2023-03-25T07:35:58;99282.91;;;16.98;67.63
47738;BME280;33502;47.182;27.506;2023-03-25T07:38:24;99282.44;;;16.51;71.42
47738;BME280;33502;47.182;27.506;2023-03-25T07:40:49;99288.16;;;16.14;73.43
47738;BME280;33502;47.182;27.506;2023-03-25T07:43:15;99283.34;;;15.97;75.90
47738;BME280;33502;47.182;27.506;2023-03-25T07:45:47;99281.78;;;16.80;73.66
47738;BME280;33502;47.182;27.506;2023-03-25T07:48:12;99270.09;;;18.24;66.71
47738;BME280;33502;47.182;27.506;2023-03-25T07:50:41;99263.56;;;18.75;63.02
47738;BME280;33502;47.182;27.506;2023-03-25T07:53:06;99271.31;;;18.97;62.12
47738;BME280;33502;47.182;27.506;2023-03-25T07:55:32;99256.09;;;18.49;62.72
47738;BME280;33502;47.182;27.506;2023-03-25T07:57:58;99247.13;;;18.31;64.45
47738;BME280;33502;47.182;27.506;2023-03-25T08:00:26;99246.69;;;18.06;65.31
47738;BME280;33502;47.182;27.506;2023-03-25T08:02:52;99235.28;;;19.65;60.31
47738;BME280;33502;47.182;27.506;2023-03-25T08:05:18;99234.31;;;19.39;60.25
47738;BME280;33502;47.182;27.506;2023-03-25T08:07:47;99224.34;;;18.64;62.30
47738;BME280;33502;47.182;27.506;2023-03-25T08:10:13;99219.44;;;18.59;63.44
47738;BME280;33502;47.182;27.506;2023-03-25T08:12:41;99205.50;;;18.46;64.10
47738;BME280;33502;47.182;27.506;2023-03-25T08:15:07;99212.69;;;19.03;61.30
47738;BME280;33502;47.182;27.506;2023-03-25T08:17:33;99201.63;;;19.71;59.64
47738;BME280;33502;47.182;27.506;2023-03-25T08:19:59;99201.75;;;20.33;56.68
47738;BME280;33502;47.182;27.506;2023-03-25T08:22:25;99201.91;;;21.02;55.50
47738;BME280;33502;47.182;27.506;2023-03-25T08:24:51;99211.56;;;22.47;49.57
47738;BME280;33502;47.182;27.506;2023-03-25T08:27:17;99220.31;;;22.41;48.05
47738;BME280;33502;47.182;27.506;2023-03-25T08:29:43;99213.63;;;21.27;51.00
47738;BME280;33502;47.182;27.506;2023-03-25T08:32:09;99219.19;;;20.55;52.89
47738;BME280;33502;47.182;27.506;2023-03-25T08:34:35;99215.09;;;20.25;54.92
47738;BME280;33502;47.182;27.506;2023-03-25T08:37:07;99211.72;;;20.41;55.44
47738;BME280;33502;47.182;27.506;2023-03-25T08:39:32;99213.97;;;20.27;56.09
47738;BME280;33502;47.182;27.506;2023-03-25T08:42:07;99215.94;;;20.87;53.34
47738;BME280;33502;47.182;27.506;2023-03-25T08:44:32;99211.91;;;22.44;48.05
47738;BME280;33502;47.182;27.506;2023-03-25T08:46:58;99217.19;;;23.10;45.69
47738;BME280;33502;47.182;27.506;2023-03-25T08:49:24;99220.47;;;22.15;46.47
47738;BME280;33502;47.182;27.506;2023-03-25T08:51:49;99208.69;;;22.40;47.19
47738;BME280;33502;47.182;27.506;2023-03-25T08:54:15;99206.31;;;22.13;46.37
47738;BME280;33502;47.182;27.506;2023-03-25T08:56:41;99203.38;;;21.89;47.11
47738;BME280;33502;47.182;27.506;2023-03-25T08:59:06;99204.66;;;22.28;46.84
47738;BME280;33502;47.182;27.506;2023-03-25T09:01:32;99194.69;;;22.53;46.24
47738;BME280;33502;47.182;27.506;2023-03-25T09:03:58;99202.75;;;22.04;46.69
47738;BME280;33502;47.182;27.506;2023-03-25T09:06:23;99201.34;;;21.67;47.85
47738;BME280;33502;47.182;27.506;2023-03-25T09:08:49;99191.59;;;21.31;49.00
47738;BME280;33502;47.182;27.506;2023-03-25T09:11:15;99193.72;;;21.62;49.02
47738;BME280;33502;47.182;27.506;2023-03-25T09:13:41;99194.84;;;22.19;47.46
47738;BME280;33502;47.182;27.506;2023-03-25T09:16:07;99189.78;;;22.07;47.14
47738;BME280;33502;47.182;27.506;2023-03-25T09:18:33;99183.41;;;22.25;47.02
47738;BME280;33502;47.182;27.506;2023-03-25T09:21:01;99176.66;;;22.37;45.98
47738;BME280;33502;47.182;27.506;2023-03-25T09:23:27;99184.72;;;22.62;45.80
47738;BME280;33502;47.182;27.506;2023-03-25T09:25:53;99172.91;;;23.27;44.55
47738;BME280;33502;47.182;27.506;2023-03-25T09:28:19;99164.56;;;23.76;43.21
47738;BME280;33502;47.182;27.506;2023-03-25T09:30:44;99155.63;;;23.76;42.66
47738;BME280;33502;47.182;27.506;2023-03-25T09:33:10;99155.22;;;23.56;42.95
47738;BME280;33502;47.182;27.506;2023-03-25T09:35:38;99151.06;;;23.05;43.96
47738;BME280;33502;47.182;27.506;2023-03-25T09:38:04;99154.22;;;23.17;44.01
47738;BME280;33502;47.182;27.506;2023-03-25T09:40:30;99155.66;;;22.97;44.18
47738;BME280;33502;47.182;27.506;2023-03-25T09:45:41;99149.38;;;23.13;43.45
47738;BME280;33502;47.182;27.506;2023-03-25T09:50:51;99152.44;;;24.18;42.26
47738;BME280;33502;47.182;27.506;2023-03-25T09:55:49;99135.59;;;24.69;39.76
47738;BME280;33502;47.182;27.506;2023-03-25T10:01:00;99124.19;;;24.74;39.92
47738;BME280;33502;47.182;27.506;2023-03-25T10:26:42;99089.06;;;24.95;37.38
47738;BME280;33502;47.182;27.506;2023-03-25T10:29:11;99073.41;;;24.91;37.32
47738;BME280;33502;47.182;27.506;2023-03-25T10:31:38;99081.00;;;24.66;38.02
47738;BME280;33502;47.182;27.506;2023-03-25T10:34:13;99076.28;;;24.45;37.82
47738;BME280;33502;47.182;27.506;2023-03-25T10:36:45;99069.34;;;24.65;38.09
47738;BME280;33502;47.182;27.506;2023-03-25T10:39:17;99064.09;;;24.78;37.61
47738;BME280;33502;47.182;27.506;2023-03-25T10:41:45;99074.72;;;24.50;37.76
47738;BME280;33502;47.182;27.506;2023-03-25T10:44:11;99081.81;;;24.66;38.09
47738;BME280;33502;47.182;27.506;2023-03-25T10:49:11;99051.94;;;24.89;36.70
47738;BME280;33502;47.182;27.506;2023-03-25T12:36:16;98910.03;;;24.84;37.10
47738;BME280;33502;47.182;27.506;2023-03-25T12:41:27;98909.34;;;24.09;38.29
47738;BME280;33502;47.182;27.506;2023-03-25T12:52:00;98901.59;;;24.72;37.33
47738;BME280;33502;47.182;27.506;2023-03-25T12:59:42;98889.94;;;25.14;36.25
47738;BME280;33502;47.182;27.506;2023-03-25T13:07:35;98885.44;;;23.68;38.25
47738;BME280;33502;47.182;27.506;2023-03-25T13:12:38;98870.78;;;23.47;39.00
47738;BME280;33502;47.182;27.506;2023-03-25T13:20:15;98864.41;;;23.02;39.42
47738;BME280;33502;47.182;27.506;2023-03-25T13:22:42;98863.94;;;22.98;39.93
47738;BME280;33502;47.182;27.506;2023-03-25T13:25:19;98855.34;;;22.95;39.99
47738;BME280;33502;47.182;27.506;2023-03-25T13:27:45;98847.31;;;22.86;39.85
47738;BME280;33502;47.182;27.506;2023-03-25T13:30:18;98843.72;;;22.71;39.95
47738;BME280;33502;47.182;27.506;2023-03-25T13:32:47;98834.38;;;22.59;39.90
47738;BME280;33502;47.182;27.506;2023-03-25T13:37:50;98839.16;;;22.48;39.68
47738;BME280;33502;47.182;27.506;2023-03-25T13:40:33;98841.50;;;22.52;39.77
47738;BME280;33502;47.182;27.506;2023-03-25T13:43:16;98843.50;;;22.58;39.43
47738;BME280;33502;47.182;27.506;2023-03-25T13:45:48;98829.34;;;22.56;38.61
47738;BME280;33502;47.182;27.506;2023-03-25T13:50:44;98844.94;;;22.68;38.93
47738;BME280;33502;47.182;27.506;2023-03-25T13:53:14;98836.53;;;22.63;38.82
47738;BME280;33502;47.182;27.506;2023-03-25T13:55:44;98842.66;;;22.57;38.54
47738;BME280;33502;47.182;27.506;2023-03-25T14:01:00;98840.19;;;22.47;39.06
47738;BME280;33502;47.182;27.506;2023-03-25T14:03:39;98833.56;;;22.27;38.86
47738;BME280;33502;47.182;27.506;2023-03-25T14:09:08;98838.72;;;21.97;39.33
47738;BME280;33502;47.182;27.506;2023-03-25T14:14:10;98834.63;;;21.78;39.73
47738;BME280;33502;47.182;27.506;2023-03-25T14:16:38;98828.06;;;21.73;40.05
47738;BME280;33502;47.182;27.506;2023-03-25T14:19:09;98830.09;;;21.62;40.34
47738;BME280;33502;47.182;27.506;2023-03-25T14:26:31;98842.28;;;21.25;41.42
47738;BME280;33502;47.182;27.506;2023-03-25T14:29:00;98846.66;;;21.18;41.32
47738;BME280;33502;47.182;27.506;2023-03-25T14:31:31;98849.88;;;21.14;41.32
47738;BME280;33502;47.182;27.506;2023-03-25T14:39:48;98854.41;;;20.88;42.35
47738;BME280;33502;47.182;27.506;2023-03-25T14:44:24;98853.72;;;20.70;42.99
47738;BME280;33502;47.182;27.506;2023-03-25T14:47:24;98857.25;;;20.62;43.16
47738;BME280;33502;47.182;27.506;2023-03-25T14:52:24;98864.03;;;20.40;44.02
47738;BME280;33502;47.182;27.506;2023-03-25T14:54:52;98847.38;;;20.28;44.72
47738;BME280;33502;47.182;27.506;2023-03-25T14:57:19;98862.97;;;20.17;45.48
47738;BME280;33502;47.182;27.506;2023-03-25T14:59:50;98864.25;;;20.04;46.18
47738;BME280;33502;47.182;27.506;2023-03-25T15:02:27;98874.47;;;19.92;45.94
47738;BME280;33502;47.182;27.506;2023-03-25T15:04:59;98864.84;;;19.82;46.42
47738;BME280;33502;47.182;27.506;2023-03-25T15:07:40;98863.13;;;19.72;46.67
47738;BME280;33502;47.182;27.506;2023-03-25T15:10:12;98870.41;;;19.62;47.26
47738;BME280;33502;47.182;27.506;2023-03-25T15:12:43;98869.53;;;19.53;48.10
47738;BME280;33502;47.182;27.506;2023-03-25T15:15:24;98876.53;;;19.46;48.71
47738;BME280;33502;47.182;27.506;2023-03-25T15:17:50;98886.38;;;19.38;49.79
47738;BME280;33502;47.182;27.506;2023-03-25T15:25:33;98889.84;;;19.12;51.95
47738;BME280;33502;47.182;27.506;2023-03-25T15:28:09;98896.84;;;19.05;52.04
47738;BME280;33502;47.182;27.506;2023-03-25T15:35:43;98900.28;;;18.61;55.58
47738;BME280;33502;47.182;27.506;2023-03-25T15:41:15;98912.59;;;18.26;59.73
47738;BME280;33502;47.182;27.506;2023-03-25T15:56:28;98921.50;;;16.93;84.89
47738;BME280;33502;47.182;27.506;2023-03-25T15:59:04;98928.50;;;16.75;90.17
47738;BME280;33502;47.182;27.506;2023-03-25T16:01:34;98928.59;;;16.54;93.31
47738;BME280;33502;47.182;27.506;2023-03-25T16:04:14;98936.16;;;16.39;95.42
47738;BME280;33502;47.182;27.506;2023-03-25T16:06:43;98931.34;;;16.23;96.92
47738;BME280;33502;47.182;27.506;2023-03-25T16:10:10;98933.28;;;16.11;98.78
47738;BME280;33502;47.182;27.506;2023-03-25T16:12:07;98934.31;;;15.99;100.00
47738;BME280;33502;47.182;27.506;2023-03-25T16:14:33;98934.00;;;15.82;100.00
47738;BME280;33502;47.182;27.506;2023-03-25T16:17:00;98940.47;;;15.69;100.00
47738;BME280;33502;47.182;27.506;2023-03-25T16:19:30;98941.41;;;15.58;100.00
47738;BME280;33502;47.182;27.506;2023-03-25T16:21:59;98952.38;;;15.43;100.00
47738;BME280;33502;47.182;27.506;2023-03-25T16:24:27;98955.59;;;15.37;100.00
47738;BME280;33502;47.182;27.506;2023-03-25T16:26:59;98958.31;;;15.26;100.00
47738;BME280;33502;47.182;27.506;2023-03-25T16:29:33;98965.41;;;15.16;100.00
47738;BME280;33502;47.182;27.506;2023-03-25T16:31:59;98968.56;;;15.10;100.00
47738;BME280;33502;47.182;27.506;2023-03-25T16:34:26;98964.59;;;15.04;100.00
47738;BME280;33502;47.182;27.506;2023-03-25T16:36:53;98962.56;;;14.96;100.00
47738;BME280;33502;47.182;27.506;2023-03-25T16:39:20;98960.38;;;14.90;100.00
47738;BME280;33502;47.182;27.506;2023-03-25T16:41:49;98958.84;;;14.87;100.00
47738;BME280;33502;47.182;27.506;2023-03-25T16:44:16;98966.94;;;14.86;100.00
47738;BME280;33502;47.182;27.506;2023-03-25T16:46:44;98959.22;;;14.83;100.00
47738;BME280;33502;47.182;27.506;2023-03-25T16:49:11;98960.28;;;14.80;100.00
47738;BME280;33502;47.182;27.506;2023-03-25T16:51:40;98958.97;;;14.75;100.00
47738;BME280;33502;47.182;27.506;2023-03-25T16:54:08;98961.31;;;14.68;100.00
47738;BME280;33502;47.182;27.506;2023-03-25T16:56:38;98953.19;;;14.70;100.00
47738;BME280;33502;47.182;27.506;2023-03-25T17:01:35;98931.88;;;14.70;100.00
47738;BME280;33502;47.182;27.506;2023-03-25T17:06:37;98949.44;;;14.72;100.00
47738;BME280;33502;47.182;27.506;2023-03-25T17:09:14;98964.78;;;14.80;100.00
47738;BME280;33502;47.182;27.506;2023-03-25T17:11:40;98994.31;;;14.88;100.00
47738;BME280;33502;47.182;27.506;2023-03-25T17:14:09;98996.97;;;14.88;100.00
47738;BME280;33502;47.182;27.506;2023-03-25T17:16:39;98988.88;;;14.78;100.00
47738;BME280;33502;47.182;27.506;2023-03-25T17:19:05;98996.78;;;14.68;100.00
47738;BME280;33502;47.182;27.506;2023-03-25T17:21:32;99001.06;;;14.60;100.00